Nyk Orpheus — 7JDN — position and weather

sailwx.info

Track history (hours):
 
Tides and Currents Weather Stations Pressure Air Temp Water Temp Dewpoint Dewpoint Depression Visibility Wind Speed Wind Dir Waves Ship Positions

Nyk Orpheus

Last reported at 2017-Nov-17 11:06 UTC. Time now 2017-Nov-22 16:48 UTC.
Position N 01°14' E 104°01'.

Length 336 m; draft 13.8 m.

Type: Ship (hazmat cat A). MMSI: 432657000.

Date/timePositionNaut miles runAvg speedWind from/ knotsBaromVisibWave heightAir tempDewpointWater temp
2017-Nov-17 11:06N 01°14' E 104°01'518.1
2017-Nov-17 10:50N 01°14' E 103°56'515.2
2017-Nov-17 10:30N 01°12' E 103°51'3 7.0
2017-Nov-17 10:00N 01°13' E 103°48'510.4
2017-Nov-17 09:30N 01°17' E 103°45'1 2.4
2017-Nov-17 09:00N 01°17' E 103°46'0 0.0
2017-Nov-17 08:29N 01°17' E 103°46'0 0.0
2017-Nov-17 07:56N 01°17' E 103°46'0 0.0
2017-Nov-17 07:30N 01°17' E 103°46'0 0.0
2017-Nov-17 06:56N 01°17' E 103°46'0 0.0
2017-Nov-17 06:29N 01°17' E 103°46'0 0.0
2017-Nov-17 05:56N 01°17' E 103°46'0 0.0
2017-Nov-17 05:30N 01°17' E 103°46'0 0.0
2017-Nov-17 04:56N 01°17' E 103°46'0 0.0
2017-Nov-17 04:29N 01°17' E 103°46'0 0.0
2017-Nov-17 03:56N 01°17' E 103°46'0 0.0
2017-Nov-17 03:27N 01°17' E 103°46'0 0.0
2017-Nov-17 02:57N 01°17' E 103°46'0 0.0
2017-Nov-17 02:26N 01°17' E 103°46'0 0.0
2017-Nov-17 01:56N 01°17' E 103°46'0 0.0
2017-Nov-17 01:29N 01°17' E 103°46'0 0.0
2017-Nov-17 00:57N 01°17' E 103°46'0 0.0
2017-Nov-17 00:26N 01°17' E 103°46'0 0.0
2017-Nov-16 23:56N 01°17' E 103°46'0 0.0
2017-Nov-16 23:30N 01°17' E 103°46'0 0.0
2017-Nov-16 22:56N 01°17' E 103°46'0 0.0
2017-Nov-16 22:29N 01°17' E 103°46'0 0.0
2017-Nov-16 21:56N 01°17' E 103°46'0 0.0
2017-Nov-16 21:30N 01°17' E 103°46'0 0.0
2017-Nov-16 20:56N 01°17' E 103°46'0 0.0
2017-Nov-16 20:29N 01°17' E 103°46'0 0.0
2017-Nov-16 19:59N 01°17' E 103°46'0 0.0
2017-Nov-16 19:29N 01°17' E 103°46'0 0.0
2017-Nov-16 18:57N 01°17' E 103°46'0 0.0
2017-Nov-16 18:30N 01°17' E 103°46'0 0.0
2017-Nov-16 17:56N 01°17' E 103°46'0 0.0
2017-Nov-16 17:26N 01°17' E 103°46'0 0.0
2017-Nov-16 16:56N 01°17' E 103°46'0 0.0
2017-Nov-16 16:30N 01°17' E 103°46'0 0.0
2017-Nov-16 15:57N 01°17' E 103°46'0 0.0
2017-Nov-16 15:29N 01°17' E 103°46'0 0.0
2017-Nov-16 14:56N 01°17' E 103°46'0 0.0
2017-Nov-16 14:30N 01°17' E 103°46'0 0.0
2017-Nov-16 13:56N 01°17' E 103°46'0 0.0
2017-Nov-16 13:29N 01°17' E 103°46'0 0.0
2017-Nov-16 12:56N 01°17' E 103°46'0 0.0
2017-Nov-16 12:26N 01°17' E 103°46'0 0.0
2017-Nov-16 11:56N 01°17' E 103°46'0 0.0
2017-Nov-16 11:30N 01°17' E 103°46'0 0.0
2017-Nov-16 10:56N 01°17' E 103°46'0 0.0
2017-Nov-16 10:29N 01°17' E 103°46'0 0.0
2017-Nov-16 09:57N 01°17' E 103°46'0 0.0
2017-Nov-16 09:29N 01°17' E 103°46'0 0.0
2017-Nov-16 08:53N 01°17' E 103°46'0 0.0
2017-Nov-16 08:30N 01°17' E 103°46'0 0.0
2017-Nov-16 07:56N 01°17' E 103°46'0 0.0
2017-Nov-16 07:29N 01°17' E 103°46'0 0.0
2017-Nov-16 06:56N 01°17' E 103°46'0 0.0
2017-Nov-16 06:29N 01°17' E 103°46'0 0.0
2017-Nov-16 05:53N 01°17' E 103°46'0 0.0
2017-Nov-16 05:29N 01°17' E 103°46'0 0.0
2017-Nov-16 04:57N 01°17' E 103°46'0 0.0
2017-Nov-16 04:29N 01°17' E 103°46'0 0.0
2017-Nov-16 03:57N 01°17' E 103°46'0 0.0
2017-Nov-16 03:27N 01°17' E 103°46'0 0.0
2017-Nov-16 02:57N 01°17' E 103°46'0 0.0
2017-Nov-16 02:30N 01°17' E 103°46'0 0.8
2017-Nov-16 02:00N 01°17' E 103°46'1 2.0
2017-Nov-16 01:30N 01°17' E 103°45'0 0.5
2017-Nov-16 01:00N 01°17' E 103°44'1 2.3
2017-Nov-16 00:30N 01°16' E 103°45'2 3.7
2017-Nov-16 00:00N 01°15' E 103°44'5 9.1
2017-Nov-15 23:30N 01°13' E 103°40'5 9.2
2017-Nov-15 23:00N 01°13' E 103°36'3 5.6
2017-Nov-15 22:30N 01°11' E 103°34'3 6.3
2017-Nov-15 22:00N 01°10' E 103°31'2 4.5
2017-Nov-15 21:30N 01°10' E 103°28'5 9.3
2017-Nov-15 21:00N 01°12' E 103°24'611.1
2017-Nov-15 20:30N 01°16' E 103°20'  
2017-Nov-09 07:00N 12°18' E 059°12'32020.0 040 / 131012.2 5.4 29.024.828.0
2017-Nov-08 15:00N 14°00' E 054°00'16418.2 050 / 141011.2 5.4 28.023.726.0
2017-Nov-08 06:00N 13°42' E 051°12'   100 / 121014.0 5.4 27.024.125.0
Track history (hours):
 
Tides and Currents Weather Stations Pressure Air Temp Water Temp Dewpoint Dewpoint Depression Visibility Wind Speed Wind Dir Waves Ship Positions

Nyk Orpheus

Last reported at 2017-Nov-17 11:06 UTC. Time now 2017-Nov-22 16:48 UTC.
Position N 01°14' E 104°01'.

Length 336 m; draft 13.8 m.

Type: Ship (hazmat cat A). MMSI: 432657000.

Date/timePositionNaut miles runAvg speedWind from/ knotsBaromVisibWave heightAir tempDewpointWater temp
2017-Nov-17 11:06N 01°14' E 104°01'518.1
2017-Nov-17 10:50N 01°14' E 103°56'515.2
2017-Nov-17 10:30N 01°12' E 103°51'3 7.0
2017-Nov-17 10:00N 01°13' E 103°48'510.4
2017-Nov-17 09:30N 01°17' E 103°45'1 2.4
2017-Nov-17 09:00N 01°17' E 103°46'0 0.0
2017-Nov-17 08:29N 01°17' E 103°46'0 0.0
2017-Nov-17 07:56N 01°17' E 103°46'0 0.0
2017-Nov-17 07:30N 01°17' E 103°46'0 0.0
2017-Nov-17 06:56N 01°17' E 103°46'0 0.0
2017-Nov-17 06:29N 01°17' E 103°46'0 0.0
2017-Nov-17 05:56N 01°17' E 103°46'0 0.0
2017-Nov-17 05:30N 01°17' E 103°46'0 0.0
2017-Nov-17 04:56N 01°17' E 103°46'0 0.0
2017-Nov-17 04:29N 01°17' E 103°46'0 0.0
2017-Nov-17 03:56N 01°17' E 103°46'0 0.0
2017-Nov-17 03:27N 01°17' E 103°46'0 0.0
2017-Nov-17 02:57N 01°17' E 103°46'0 0.0
2017-Nov-17 02:26N 01°17' E 103°46'0 0.0
2017-Nov-17 01:56N 01°17' E 103°46'0 0.0
2017-Nov-17 01:29N 01°17' E 103°46'0 0.0
2017-Nov-17 00:57N 01°17' E 103°46'0 0.0
2017-Nov-17 00:26N 01°17' E 103°46'0 0.0
2017-Nov-16 23:56N 01°17' E 103°46'0 0.0
2017-Nov-16 23:30N 01°17' E 103°46'0 0.0
2017-Nov-16 22:56N 01°17' E 103°46'0 0.0
2017-Nov-16 22:29N 01°17' E 103°46'0 0.0
2017-Nov-16 21:56N 01°17' E 103°46'0 0.0
2017-Nov-16 21:30N 01°17' E 103°46'0 0.0
2017-Nov-16 20:56N 01°17' E 103°46'0 0.0
2017-Nov-16 20:29N 01°17' E 103°46'0 0.0
2017-Nov-16 19:59N 01°17' E 103°46'0 0.0
2017-Nov-16 19:29N 01°17' E 103°46'0 0.0
2017-Nov-16 18:57N 01°17' E 103°46'0 0.0
2017-Nov-16 18:30N 01°17' E 103°46'0 0.0
2017-Nov-16 17:56N 01°17' E 103°46'0 0.0
2017-Nov-16 17:26N 01°17' E 103°46'0 0.0
2017-Nov-16 16:56N 01°17' E 103°46'0 0.0
2017-Nov-16 16:30N 01°17' E 103°46'0 0.0
2017-Nov-16 15:57N 01°17' E 103°46'0 0.0
2017-Nov-16 15:29N 01°17' E 103°46'0 0.0
2017-Nov-16 14:56N 01°17' E 103°46'0 0.0
2017-Nov-16 14:30N 01°17' E 103°46'0 0.0
2017-Nov-16 13:56N 01°17' E 103°46'0 0.0
2017-Nov-16 13:29N 01°17' E 103°46'0 0.0
2017-Nov-16 12:56N 01°17' E 103°46'0 0.0
2017-Nov-16 12:26N 01°17' E 103°46'0 0.0
2017-Nov-16 11:56N 01°17' E 103°46'0 0.0
2017-Nov-16 11:30N 01°17' E 103°46'0 0.0
2017-Nov-16 10:56N 01°17' E 103°46'0 0.0
2017-Nov-16 10:29N 01°17' E 103°46'0 0.0
2017-Nov-16 09:57N 01°17' E 103°46'0 0.0
2017-Nov-16 09:29N 01°17' E 103°46'0 0.0
2017-Nov-16 08:53N 01°17' E 103°46'0 0.0
2017-Nov-16 08:30N 01°17' E 103°46'0 0.0
2017-Nov-16 07:56N 01°17' E 103°46'0 0.0
2017-Nov-16 07:29N 01°17' E 103°46'0 0.0
2017-Nov-16 06:56N 01°17' E 103°46'0 0.0
2017-Nov-16 06:29N 01°17' E 103°46'0 0.0
2017-Nov-16 05:53N 01°17' E 103°46'0 0.0
2017-Nov-16 05:29N 01°17' E 103°46'0 0.0
2017-Nov-16 04:57N 01°17' E 103°46'0 0.0
2017-Nov-16 04:29N 01°17' E 103°46'0 0.0
2017-Nov-16 03:57N 01°17' E 103°46'0 0.0
2017-Nov-16 03:27N 01°17' E 103°46'0 0.0
2017-Nov-16 02:57N 01°17' E 103°46'0 0.0
2017-Nov-16 02:30N 01°17' E 103°46'0 0.8
2017-Nov-16 02:00N 01°17' E 103°46'1 2.0
2017-Nov-16 01:30N 01°17' E 103°45'0 0.5
2017-Nov-16 01:00N 01°17' E 103°44'1 2.3
2017-Nov-16 00:30N 01°16' E 103°45'2 3.7
2017-Nov-16 00:00N 01°15' E 103°44'5 9.1
2017-Nov-15 23:30N 01°13' E 103°40'5 9.2
2017-Nov-15 23:00N 01°13' E 103°36'3 5.6
2017-Nov-15 22:30N 01°11' E 103°34'3 6.3
2017-Nov-15 22:00N 01°10' E 103°31'2 4.5
2017-Nov-15 21:30N 01°10' E 103°28'5 9.3
2017-Nov-15 21:00N 01°12' E 103°24'611.1
2017-Nov-15 20:30N 01°16' E 103°20'  
2017-Nov-09 07:00N 12°18' E 059°12'32020.0 040 / 131012.2 5.4 29.024.828.0
2017-Nov-08 15:00N 14°00' E 054°00'16418.2 050 / 141011.2 5.4 28.023.726.0
2017-Nov-08 06:00N 13°42' E 051°12'   100 / 121014.0 5.4 27.024.125.0

Dump ship's entire track history